sensor_id;sensor_type;location;lat;lon;timestamp;P1;durP1;ratioP1;P2;durP2;ratioP2
27744;SDS011;61387;48.112;8.616;2023-04-06T00:01:10;11.57;;;6.00;;
27744;SDS011;61387;48.112;8.616;2023-04-06T00:03:36;10.10;;;6.10;;
27744;SDS011;61387;48.112;8.616;2023-04-06T00:06:02;12.27;;;6.10;;
27744;SDS011;61387;48.112;8.616;2023-04-06T00:08:28;11.83;;;6.80;;
27744;SDS011;61387;48.112;8.616;2023-04-06T00:10:54;10.87;;;6.50;;
27744;SDS011;61387;48.112;8.616;2023-04-06T00:13:19;13.13;;;7.40;;
27744;SDS011;61387;48.112;8.616;2023-04-06T00:15:45;10.27;;;5.87;;
27744;SDS011;61387;48.112;8.616;2023-04-06T00:18:11;13.30;;;6.30;;
27744;SDS011;61387;48.112;8.616;2023-04-06T00:20:36;12.23;;;6.47;;
27744;SDS011;61387;48.112;8.616;2023-04-06T00:23:02;11.87;;;6.97;;
27744;SDS011;61387;48.112;8.616;2023-04-06T00:25:27;10.50;;;6.80;;
27744;SDS011;61387;48.112;8.616;2023-04-06T00:27:53;11.20;;;6.73;;
27744;SDS011;61387;48.112;8.616;2023-04-06T00:30:19;12.90;;;7.20;;
27744;SDS011;61387;48.112;8.616;2023-04-06T00:32:45;10.07;;;6.50;;
27744;SDS011;61387;48.112;8.616;2023-04-06T00:35:11;10.30;;;6.07;;
27744;SDS011;61387;48.112;8.616;2023-04-06T00:37:36;10.50;;;6.40;;
27744;SDS011;61387;48.112;8.616;2023-04-06T00:40:02;9.15;;;5.82;;
27744;SDS011;61387;48.112;8.616;2023-04-06T00:42:28;11.73;;;6.43;;
27744;SDS011;61387;48.112;8.616;2023-04-06T00:44:54;13.37;;;6.30;;
27744;SDS011;61387;48.112;8.616;2023-04-06T00:47:21;9.50;;;6.10;;
27744;SDS011;61387;48.112;8.616;2023-04-06T00:49:47;11.97;;;6.20;;
27744;SDS011;61387;48.112;8.616;2023-04-06T00:52:13;10.17;;;6.40;;
27744;SDS011;61387;48.112;8.616;2023-04-06T00:54:39;11.17;;;6.60;;
27744;SDS011;61387;48.112;8.616;2023-04-06T00:57:05;11.27;;;7.17;;
27744;SDS011;61387;48.112;8.616;2023-04-06T00:59:31;12.83;;;7.23;;
27744;SDS011;61387;48.112;8.616;2023-04-06T01:01:57;13.13;;;6.97;;
27744;SDS011;61387;48.112;8.616;2023-04-06T01:04:24;12.33;;;7.37;;
27744;SDS011;61387;48.112;8.616;2023-04-06T01:06:50;12.90;;;7.27;;
27744;SDS011;61387;48.112;8.616;2023-04-06T01:09:16;10.67;;;6.83;;
27744;SDS011;61387;48.112;8.616;2023-04-06T01:11:42;12.60;;;7.50;;
27744;SDS011;61387;48.112;8.616;2023-04-06T01:14:08;10.90;;;6.50;;
27744;SDS011;61387;48.112;8.616;2023-04-06T01:16:34;11.97;;;6.87;;
27744;SDS011;61387;48.112;8.616;2023-04-06T01:19:01;12.83;;;7.40;;
27744;SDS011;61387;48.112;8.616;2023-04-06T01:21:27;13.10;;;8.33;;
27744;SDS011;61387;48.112;8.616;2023-04-06T01:23:52;11.00;;;7.07;;
27744;SDS011;61387;48.112;8.616;2023-04-06T01:26:18;13.33;;;6.77;;
27744;SDS011;61387;48.112;8.616;2023-04-06T01:28:44;13.80;;;7.30;;
27744;SDS011;61387;48.112;8.616;2023-04-06T01:31:10;12.73;;;7.00;;
27744;SDS011;61387;48.112;8.616;2023-04-06T01:33:36;11.67;;;6.87;;
27744;SDS011;61387;48.112;8.616;2023-04-06T01:36:02;11.10;;;7.05;;
27744;SDS011;61387;48.112;8.616;2023-04-06T01:38:28;13.13;;;7.33;;
27744;SDS011;61387;48.112;8.616;2023-04-06T01:40:54;11.45;;;6.93;;
27744;SDS011;61387;48.112;8.616;2023-04-06T01:43:20;11.70;;;7.03;;
27744;SDS011;61387;48.112;8.616;2023-04-06T01:45:46;11.17;;;6.93;;
27744;SDS011;61387;48.112;8.616;2023-04-06T01:48:11;11.93;;;7.17;;
27744;SDS011;61387;48.112;8.616;2023-04-06T01:50:37;10.73;;;6.87;;
27744;SDS011;61387;48.112;8.616;2023-04-06T01:53:03;10.10;;;6.10;;
27744;SDS011;61387;48.112;8.616;2023-04-06T01:55:28;12.70;;;6.70;;
27744;SDS011;61387;48.112;8.616;2023-04-06T01:57:54;12.17;;;6.90;;
27744;SDS011;61387;48.112;8.616;2023-04-06T02:00:20;9.10;;;5.90;;
27744;SDS011;61387;48.112;8.616;2023-04-06T02:02:45;10.37;;;6.00;;
27744;SDS011;61387;48.112;8.616;2023-04-06T02:05:11;10.90;;;6.03;;
27744;SDS011;61387;48.112;8.616;2023-04-06T02:07:37;10.87;;;6.33;;
27744;SDS011;61387;48.112;8.616;2023-04-06T02:10:03;11.50;;;6.87;;
27744;SDS011;61387;48.112;8.616;2023-04-06T02:12:29;12.67;;;6.57;;
27744;SDS011;61387;48.112;8.616;2023-04-06T02:14:55;13.23;;;7.20;;
27744;SDS011;61387;48.112;8.616;2023-04-06T02:17:20;13.90;;;7.60;;
27744;SDS011;61387;48.112;8.616;2023-04-06T02:19:46;13.90;;;7.40;;
27744;SDS011;61387;48.112;8.616;2023-04-06T02:22:11;14.73;;;8.37;;
27744;SDS011;61387;48.112;8.616;2023-04-06T02:24:37;14.90;;;8.33;;
27744;SDS011;61387;48.112;8.616;2023-04-06T02:27:03;15.43;;;7.73;;
27744;SDS011;61387;48.112;8.616;2023-04-06T02:29:29;15.50;;;7.63;;
27744;SDS011;61387;48.112;8.616;2023-04-06T02:31:54;12.77;;;6.70;;
27744;SDS011;61387;48.112;8.616;2023-04-06T02:34:20;14.70;;;7.53;;
27744;SDS011;61387;48.112;8.616;2023-04-06T02:36:46;11.80;;;7.60;;
27744;SDS011;61387;48.112;8.616;2023-04-06T02:39:12;16.30;;;7.90;;
27744;SDS011;61387;48.112;8.616;2023-04-06T02:41:38;12.73;;;7.40;;
27744;SDS011;61387;48.112;8.616;2023-04-06T02:44:06;14.17;;;7.27;;
27744;SDS011;61387;48.112;8.616;2023-04-06T02:46:33;14.07;;;7.10;;
27744;SDS011;61387;48.112;8.616;2023-04-06T02:48:59;12.00;;;7.43;;
27744;SDS011;61387;48.112;8.616;2023-04-06T02:51:25;12.10;;;7.27;;
27744;SDS011;61387;48.112;8.616;2023-04-06T02:53:51;11.53;;;7.20;;
27744;SDS011;61387;48.112;8.616;2023-04-06T02:56:17;11.07;;;7.43;;
27744;SDS011;61387;48.112;8.616;2023-04-06T02:58:45;15.00;;;7.67;;
27744;SDS011;61387;48.112;8.616;2023-04-06T03:01:10;13.10;;;7.67;;
27744;SDS011;61387;48.112;8.616;2023-04-06T03:03:36;13.70;;;7.83;;
27744;SDS011;61387;48.112;8.616;2023-04-06T03:06:02;11.87;;;7.10;;
27744;SDS011;61387;48.112;8.616;2023-04-06T03:08:28;13.93;;;8.20;;
27744;SDS011;61387;48.112;8.616;2023-04-06T03:10:53;12.97;;;8.20;;
27744;SDS011;61387;48.112;8.616;2023-04-06T03:13:20;13.77;;;7.57;;
27744;SDS011;61387;48.112;8.616;2023-04-06T03:15:45;14.50;;;8.00;;
27744;SDS011;61387;48.112;8.616;2023-04-06T03:18:11;13.68;;;7.75;;
27744;SDS011;61387;48.112;8.616;2023-04-06T03:20:37;13.53;;;7.67;;
27744;SDS011;61387;48.112;8.616;2023-04-06T03:23:03;17.30;;;7.83;;
27744;SDS011;61387;48.112;8.616;2023-04-06T03:25:28;13.10;;;7.10;;
27744;SDS011;61387;48.112;8.616;2023-04-06T03:27:55;13.60;;;7.97;;
27744;SDS011;61387;48.112;8.616;2023-04-06T03:30:21;11.97;;;7.83;;
27744;SDS011;61387;48.112;8.616;2023-04-06T03:32:47;12.83;;;8.13;;
27744;SDS011;61387;48.112;8.616;2023-04-06T03:35:13;13.77;;;8.80;;
27744;SDS011;61387;48.112;8.616;2023-04-06T03:37:38;14.00;;;8.38;;
27744;SDS011;61387;48.112;8.616;2023-04-06T03:40:05;12.93;;;8.50;;
27744;SDS011;61387;48.112;8.616;2023-04-06T03:42:31;16.40;;;8.73;;
27744;SDS011;61387;48.112;8.616;2023-04-06T03:44:57;16.67;;;9.13;;
27744;SDS011;61387;48.112;8.616;2023-04-06T03:47:23;16.10;;;8.30;;
27744;SDS011;61387;48.112;8.616;2023-04-06T03:49:49;17.43;;;9.20;;
27744;SDS011;61387;48.112;8.616;2023-04-06T03:52:15;14.87;;;8.80;;
27744;SDS011;61387;48.112;8.616;2023-04-06T03:54:40;15.80;;;8.83;;
27744;SDS011;61387;48.112;8.616;2023-04-06T03:57:06;15.80;;;8.47;;
27744;SDS011;61387;48.112;8.616;2023-04-06T03:59:31;15.93;;;9.70;;
27744;SDS011;61387;48.112;8.616;2023-04-06T04:01:57;16.33;;;9.60;;
27744;SDS011;61387;48.112;8.616;2023-04-06T04:04:23;18.00;;;10.13;;
27744;SDS011;61387;48.112;8.616;2023-04-06T04:06:49;14.97;;;9.27;;
27744;SDS011;61387;48.112;8.616;2023-04-06T04:09:14;14.40;;;9.03;;
27744;SDS011;61387;48.112;8.616;2023-04-06T04:11:40;15.63;;;9.17;;
27744;SDS011;61387;48.112;8.616;2023-04-06T04:14:05;18.47;;;8.47;;
27744;SDS011;61387;48.112;8.616;2023-04-06T04:16:31;22.00;;;10.63;;
27744;SDS011;61387;48.112;8.616;2023-04-06T04:18:57;19.13;;;9.90;;
27744;SDS011;61387;48.112;8.616;2023-04-06T04:21:23;17.37;;;9.97;;
27744;SDS011;61387;48.112;8.616;2023-04-06T04:23:50;14.77;;;8.43;;
27744;SDS011;61387;48.112;8.616;2023-04-06T04:26:17;14.67;;;8.87;;
27744;SDS011;61387;48.112;8.616;2023-04-06T04:28:43;13.52;;;8.55;;
27744;SDS011;61387;48.112;8.616;2023-04-06T04:31:08;16.10;;;9.47;;
27744;SDS011;61387;48.112;8.616;2023-04-06T04:33:34;13.03;;;8.40;;
27744;SDS011;61387;48.112;8.616;2023-04-06T04:36:00;14.47;;;8.27;;
27744;SDS011;61387;48.112;8.616;2023-04-06T04:38:25;14.00;;;8.47;;
27744;SDS011;61387;48.112;8.616;2023-04-06T04:40:51;14.47;;;8.07;;
27744;SDS011;61387;48.112;8.616;2023-04-06T04:43:17;15.27;;;8.60;;
27744;SDS011;61387;48.112;8.616;2023-04-06T04:45:43;12.80;;;8.30;;
27744;SDS011;61387;48.112;8.616;2023-04-06T04:48:08;15.32;;;9.07;;
27744;SDS011;61387;48.112;8.616;2023-04-06T04:50:34;16.37;;;9.20;;
27744;SDS011;61387;48.112;8.616;2023-04-06T04:53:00;14.70;;;9.00;;
27744;SDS011;61387;48.112;8.616;2023-04-06T04:55:25;18.43;;;9.57;;
27744;SDS011;61387;48.112;8.616;2023-04-06T04:57:51;17.10;;;8.67;;
27744;SDS011;61387;48.112;8.616;2023-04-06T05:00:17;15.63;;;9.07;;
27744;SDS011;61387;48.112;8.616;2023-04-06T05:02:42;30.53;;;9.87;;
27744;SDS011;61387;48.112;8.616;2023-04-06T05:05:08;25.03;;;9.67;;
27744;SDS011;61387;48.112;8.616;2023-04-06T05:07:34;15.20;;;9.05;;
27744;SDS011;61387;48.112;8.616;2023-04-06T05:10:00;16.97;;;9.30;;
27744;SDS011;61387;48.112;8.616;2023-04-06T05:12:25;17.47;;;8.57;;
27744;SDS011;61387;48.112;8.616;2023-04-06T05:14:52;27.97;;;13.70;;
27744;SDS011;61387;48.112;8.616;2023-04-06T05:17:18;27.60;;;13.53;;
27744;SDS011;61387;48.112;8.616;2023-04-06T05:19:44;23.33;;;11.73;;
27744;SDS011;61387;48.112;8.616;2023-04-06T05:22:10;20.80;;;11.40;;
27744;SDS011;61387;48.112;8.616;2023-04-06T05:24:35;16.07;;;10.10;;
27744;SDS011;61387;48.112;8.616;2023-04-06T05:27:01;12.73;;;8.57;;
27744;SDS011;61387;48.112;8.616;2023-04-06T05:29:27;14.10;;;9.13;;
27744;SDS011;61387;48.112;8.616;2023-04-06T05:31:53;13.70;;;8.20;;
27744;SDS011;61387;48.112;8.616;2023-04-06T05:34:19;19.27;;;8.77;;
27744;SDS011;61387;48.112;8.616;2023-04-06T05:36:45;30.50;;;22.17;;
27744;SDS011;61387;48.112;8.616;2023-04-06T05:39:11;43.50;;;24.13;;
27744;SDS011;61387;48.112;8.616;2023-04-06T05:41:37;22.63;;;12.27;;
27744;SDS011;61387;48.112;8.616;2023-04-06T05:44:03;15.47;;;10.03;;
27744;SDS011;61387;48.112;8.616;2023-04-06T05:46:28;18.07;;;10.70;;
27744;SDS011;61387;48.112;8.616;2023-04-06T05:48:54;16.37;;;9.07;;
27744;SDS011;61387;48.112;8.616;2023-04-06T05:51:20;13.97;;;9.07;;
27744;SDS011;61387;48.112;8.616;2023-04-06T05:53:46;17.57;;;10.47;;
27744;SDS011;61387;48.112;8.616;2023-04-06T05:56:12;21.00;;;11.60;;
27744;SDS011;61387;48.112;8.616;2023-04-06T05:58:37;20.50;;;11.87;;
27744;SDS011;61387;48.112;8.616;2023-04-06T06:01:03;26.75;;;16.67;;
27744;SDS011;61387;48.112;8.616;2023-04-06T06:03:29;49.40;;;25.20;;
27744;SDS011;61387;48.112;8.616;2023-04-06T06:05:59;28.10;;;16.30;;
27744;SDS011;61387;48.112;8.616;2023-04-06T06:08:28;27.50;;;15.00;;
27744;SDS011;61387;48.112;8.616;2023-04-06T06:10:54;27.77;;;15.17;;
27744;SDS011;61387;48.112;8.616;2023-04-06T06:13:21;19.30;;;11.97;;
27744;SDS011;61387;48.112;8.616;2023-04-06T06:15:47;20.57;;;11.83;;
27744;SDS011;61387;48.112;8.616;2023-04-06T06:18:13;15.73;;;9.03;;
27744;SDS011;61387;48.112;8.616;2023-04-06T06:20:38;21.35;;;12.45;;
27744;SDS011;61387;48.112;8.616;2023-04-06T06:23:04;23.77;;;13.03;;
27744;SDS011;61387;48.112;8.616;2023-04-06T06:25:29;16.73;;;9.83;;
27744;SDS011;61387;48.112;8.616;2023-04-06T06:27:58;14.40;;;9.13;;
27744;SDS011;61387;48.112;8.616;2023-04-06T06:30:24;14.70;;;9.17;;
27744;SDS011;61387;48.112;8.616;2023-04-06T06:32:50;12.82;;;8.52;;
27744;SDS011;61387;48.112;8.616;2023-04-06T06:35:16;13.47;;;8.00;;
27744;SDS011;61387;48.112;8.616;2023-04-06T06:37:41;14.30;;;8.60;;
27744;SDS011;61387;48.112;8.616;2023-04-06T06:40:08;14.77;;;8.60;;
27744;SDS011;61387;48.112;8.616;2023-04-06T06:42:35;15.23;;;8.83;;
27744;SDS011;61387;48.112;8.616;2023-04-06T06:45:01;13.73;;;8.80;;
27744;SDS011;61387;48.112;8.616;2023-04-06T06:47:26;13.82;;;7.53;;
27744;SDS011;61387;48.112;8.616;2023-04-06T06:49:52;12.23;;;7.70;;
27744;SDS011;61387;48.112;8.616;2023-04-06T06:52:17;14.07;;;8.83;;
27744;SDS011;61387;48.112;8.616;2023-04-06T06:54:43;14.77;;;8.93;;
27744;SDS011;61387;48.112;8.616;2023-04-06T06:57:09;12.90;;;8.30;;
27744;SDS011;61387;48.112;8.616;2023-04-06T06:59:35;14.40;;;8.90;;
27744;SDS011;61387;48.112;8.616;2023-04-06T07:02:00;13.15;;;7.90;;
27744;SDS011;61387;48.112;8.616;2023-04-06T07:04:26;15.00;;;8.03;;
27744;SDS011;61387;48.112;8.616;2023-04-06T07:06:51;14.60;;;8.43;;
27744;SDS011;61387;48.112;8.616;2023-04-06T07:09:17;12.83;;;7.83;;
27744;SDS011;61387;48.112;8.616;2023-04-06T07:11:43;11.87;;;7.67;;
27744;SDS011;61387;48.112;8.616;2023-04-06T07:14:09;10.93;;;7.47;;
27744;SDS011;61387;48.112;8.616;2023-04-06T07:16:34;12.73;;;8.13;;
27744;SDS011;61387;48.112;8.616;2023-04-06T07:19:00;14.57;;;7.77;;
27744;SDS011;61387;48.112;8.616;2023-04-06T07:21:26;11.50;;;7.30;;
27744;SDS011;61387;48.112;8.616;2023-04-06T07:23:51;12.87;;;7.73;;
27744;SDS011;61387;48.112;8.616;2023-04-06T07:26:17;12.60;;;8.30;;
27744;SDS011;61387;48.112;8.616;2023-04-06T07:28:43;15.37;;;8.30;;
27744;SDS011;61387;48.112;8.616;2023-04-06T07:31:08;11.27;;;7.33;;
27744;SDS011;61387;48.112;8.616;2023-04-06T07:33:34;11.40;;;7.27;;
27744;SDS011;61387;48.112;8.616;2023-04-06T07:36:00;13.20;;;7.87;;
27744;SDS011;61387;48.112;8.616;2023-04-06T07:38:25;12.00;;;7.63;;
27744;SDS011;61387;48.112;8.616;2023-04-06T07:40:51;12.00;;;8.17;;
27744;SDS011;61387;48.112;8.616;2023-04-06T07:43:16;14.13;;;7.47;;
27744;SDS011;61387;48.112;8.616;2023-04-06T07:45:42;12.43;;;7.83;;
27744;SDS011;61387;48.112;8.616;2023-04-06T07:48:07;13.60;;;8.10;;
27744;SDS011;61387;48.112;8.616;2023-04-06T07:50:34;11.67;;;7.97;;
27744;SDS011;61387;48.112;8.616;2023-04-06T07:52:59;11.23;;;7.40;;
27744;SDS011;61387;48.112;8.616;2023-04-06T07:55:25;10.93;;;7.73;;
27744;SDS011;61387;48.112;8.616;2023-04-06T07:57:50;13.47;;;7.40;;
27744;SDS011;61387;48.112;8.616;2023-04-06T08:00:16;9.37;;;6.77;;
27744;SDS011;61387;48.112;8.616;2023-04-06T08:02:42;12.07;;;6.73;;
27744;SDS011;61387;48.112;8.616;2023-04-06T08:05:08;10.23;;;6.23;;
27744;SDS011;61387;48.112;8.616;2023-04-06T08:07:34;10.33;;;6.77;;
27744;SDS011;61387;48.112;8.616;2023-04-06T08:10:00;11.67;;;7.07;;
27744;SDS011;61387;48.112;8.616;2023-04-06T08:12:26;11.33;;;6.27;;
27744;SDS011;61387;48.112;8.616;2023-04-06T08:14:51;11.00;;;6.57;;
27744;SDS011;61387;48.112;8.616;2023-04-06T08:17:17;10.23;;;6.10;;
27744;SDS011;61387;48.112;8.616;2023-04-06T08:19:44;12.27;;;6.40;;
27744;SDS011;61387;48.112;8.616;2023-04-06T08:22:10;11.23;;;7.00;;
27744;SDS011;61387;48.112;8.616;2023-04-06T08:24:36;9.13;;;6.07;;
27744;SDS011;61387;48.112;8.616;2023-04-06T08:27:02;12.73;;;6.60;;
27744;SDS011;61387;48.112;8.616;2023-04-06T08:29:28;11.50;;;5.47;;
27744;SDS011;61387;48.112;8.616;2023-04-06T08:31:53;9.37;;;5.57;;
27744;SDS011;61387;48.112;8.616;2023-04-06T08:34:19;10.57;;;5.33;;
27744;SDS011;61387;48.112;8.616;2023-04-06T08:36:45;7.80;;;5.20;;
27744;SDS011;61387;48.112;8.616;2023-04-06T08:39:11;9.03;;;5.53;;
27744;SDS011;61387;48.112;8.616;2023-04-06T08:41:37;8.60;;;5.27;;
27744;SDS011;61387;48.112;8.616;2023-04-06T08:44:03;9.43;;;6.20;;
27744;SDS011;61387;48.112;8.616;2023-04-06T08:46:30;8.57;;;5.23;;
27744;SDS011;61387;48.112;8.616;2023-04-06T08:48:56;9.23;;;5.80;;
27744;SDS011;61387;48.112;8.616;2023-04-06T08:51:23;10.47;;;5.97;;
27744;SDS011;61387;48.112;8.616;2023-04-06T08:53:53;9.40;;;5.40;;
27744;SDS011;61387;48.112;8.616;2023-04-06T08:56:20;9.27;;;5.50;;
27744;SDS011;61387;48.112;8.616;2023-04-06T08:58:46;8.63;;;5.00;;
27744;SDS011;61387;48.112;8.616;2023-04-06T09:01:13;9.87;;;4.77;;
27744;SDS011;61387;48.112;8.616;2023-04-06T09:03:40;7.77;;;5.13;;
27744;SDS011;61387;48.112;8.616;2023-04-06T09:06:07;8.20;;;4.87;;
27744;SDS011;61387;48.112;8.616;2023-04-06T09:08:34;9.10;;;5.13;;
27744;SDS011;61387;48.112;8.616;2023-04-06T09:11:01;8.93;;;5.50;;
27744;SDS011;61387;48.112;8.616;2023-04-06T09:13:27;11.73;;;5.53;;
27744;SDS011;61387;48.112;8.616;2023-04-06T09:16:03;10.17;;;5.20;;
27744;SDS011;61387;48.112;8.616;2023-04-06T09:18:31;9.77;;;5.13;;
27744;SDS011;61387;48.112;8.616;2023-04-06T09:21:00;8.77;;;5.30;;
27744;SDS011;61387;48.112;8.616;2023-04-06T09:23:27;9.20;;;5.90;;
27744;SDS011;61387;48.112;8.616;2023-04-06T09:26:04;9.13;;;5.00;;
27744;SDS011;61387;48.112;8.616;2023-04-06T09:31:22;10.60;;;5.60;;
27744;SDS011;61387;48.112;8.616;2023-04-06T09:33:49;9.47;;;5.40;;
27744;SDS011;61387;48.112;8.616;2023-04-06T09:36:14;8.67;;;5.60;;
27744;SDS011;61387;48.112;8.616;2023-04-06T09:41:29;8.13;;;4.80;;
27744;SDS011;61387;48.112;8.616;2023-04-06T09:44:06;7.90;;;5.23;;
27744;SDS011;61387;48.112;8.616;2023-04-06T09:46:36;8.77;;;5.50;;
27744;SDS011;61387;48.112;8.616;2023-04-06T09:49:04;7.30;;;5.07;;
27744;SDS011;61387;48.112;8.616;2023-04-06T09:51:31;9.13;;;5.33;;
27744;SDS011;61387;48.112;8.616;2023-04-06T09:54:11;10.97;;;5.70;;
27744;SDS011;61387;48.112;8.616;2023-04-06T09:56:47;11.33;;;5.60;;
27744;SDS011;61387;48.112;8.616;2023-04-06T09:59:13;9.80;;;5.20;;
27744;SDS011;61387;48.112;8.616;2023-04-06T10:01:43;12.07;;;5.10;;
27744;SDS011;61387;48.112;8.616;2023-04-06T10:04:30;11.27;;;5.60;;
27744;SDS011;61387;48.112;8.616;2023-04-06T10:07:09;10.30;;;5.20;;
27744;SDS011;61387;48.112;8.616;2023-04-06T10:09:40;10.93;;;5.60;;
27744;SDS011;61387;48.112;8.616;2023-04-06T10:12:10;9.20;;;5.40;;
27744;SDS011;61387;48.112;8.616;2023-04-06T10:14:37;8.17;;;5.23;;
27744;SDS011;61387;48.112;8.616;2023-04-06T10:17:04;9.37;;;4.90;;
27744;SDS011;61387;48.112;8.616;2023-04-06T10:19:35;8.27;;;4.97;;
27744;SDS011;61387;48.112;8.616;2023-04-06T10:22:04;11.07;;;5.87;;
27744;SDS011;61387;48.112;8.616;2023-04-06T10:24:30;8.87;;;5.33;;
27744;SDS011;61387;48.112;8.616;2023-04-06T10:27:06;8.30;;;5.25;;
27744;SDS011;61387;48.112;8.616;2023-04-06T10:29:43;36.03;;;32.13;;
27744;SDS011;61387;48.112;8.616;2023-04-06T10:32:10;11.33;;;6.93;;
27744;SDS011;61387;48.112;8.616;2023-04-06T10:34:36;8.07;;;5.50;;
27744;SDS011;61387;48.112;8.616;2023-04-06T10:37:14;9.32;;;6.00;;
27744;SDS011;61387;48.112;8.616;2023-04-06T10:39:53;8.50;;;5.50;;
27744;SDS011;61387;48.112;8.616;2023-04-06T10:42:36;8.97;;;5.73;;
27744;SDS011;61387;48.112;8.616;2023-04-06T10:45:04;8.97;;;5.27;;
27744;SDS011;61387;48.112;8.616;2023-04-06T10:47:38;8.93;;;5.90;;
27744;SDS011;61387;48.112;8.616;2023-04-06T10:50:07;8.17;;;5.30;;
27744;SDS011;61387;48.112;8.616;2023-04-06T10:52:32;10.10;;;5.60;;
27744;SDS011;61387;48.112;8.616;2023-04-06T10:54:58;9.37;;;5.23;;
27744;SDS011;61387;48.112;8.616;2023-04-06T10:57:27;8.83;;;5.27;;
27744;SDS011;61387;48.112;8.616;2023-04-06T10:59:54;7.60;;;5.30;;
27744;SDS011;61387;48.112;8.616;2023-04-06T11:02:20;9.07;;;5.40;;
27744;SDS011;61387;48.112;8.616;2023-04-06T11:04:53;7.80;;;5.50;;
27744;SDS011;61387;48.112;8.616;2023-04-06T11:07:27;9.57;;;5.77;;
27744;SDS011;61387;48.112;8.616;2023-04-06T11:09:55;7.53;;;5.50;;
27744;SDS011;61387;48.112;8.616;2023-04-06T11:12:25;8.23;;;5.43;;
27744;SDS011;61387;48.112;8.616;2023-04-06T11:14:55;9.20;;;5.70;;
27744;SDS011;61387;48.112;8.616;2023-04-06T11:17:27;10.10;;;6.10;;
27744;SDS011;61387;48.112;8.616;2023-04-06T11:19:54;8.43;;;5.60;;
27744;SDS011;61387;48.112;8.616;2023-04-06T11:22:20;9.50;;;5.30;;
27744;SDS011;61387;48.112;8.616;2023-04-06T11:24:45;8.37;;;5.73;;
27744;SDS011;61387;48.112;8.616;2023-04-06T11:27:11;8.07;;;5.67;;
27744;SDS011;61387;48.112;8.616;2023-04-06T11:29:37;12.00;;;6.20;;
27744;SDS011;61387;48.112;8.616;2023-04-06T11:32:04;8.23;;;5.50;;
27744;SDS011;61387;48.112;8.616;2023-04-06T11:34:32;9.77;;;5.93;;
27744;SDS011;61387;48.112;8.616;2023-04-06T11:37:02;8.03;;;5.83;;
27744;SDS011;61387;48.112;8.616;2023-04-06T11:39:31;8.83;;;5.47;;
27744;SDS011;61387;48.112;8.616;2023-04-06T11:42:02;8.47;;;5.43;;
27744;SDS011;61387;48.112;8.616;2023-04-06T11:44:42;7.77;;;5.10;;
27744;SDS011;61387;48.112;8.616;2023-04-06T11:47:11;8.87;;;5.47;;
27744;SDS011;61387;48.112;8.616;2023-04-06T11:49:38;10.27;;;5.97;;
27744;SDS011;61387;48.112;8.616;2023-04-06T11:52:18;8.50;;;6.10;;
27744;SDS011;61387;48.112;8.616;2023-04-06T11:54:51;9.20;;;5.53;;
27744;SDS011;61387;48.112;8.616;2023-04-06T11:57:18;9.23;;;5.93;;
27744;SDS011;61387;48.112;8.616;2023-04-06T11:59:45;8.70;;;5.73;;
27744;SDS011;61387;48.112;8.616;2023-04-06T12:02:11;9.07;;;6.03;;
27744;SDS011;61387;48.112;8.616;2023-04-06T12:04:37;8.70;;;5.62;;
27744;SDS011;61387;48.112;8.616;2023-04-06T12:07:03;8.67;;;5.63;;
27744;SDS011;61387;48.112;8.616;2023-04-06T12:09:29;10.30;;;5.57;;
27744;SDS011;61387;48.112;8.616;2023-04-06T12:11:56;10.03;;;5.93;;
27744;SDS011;61387;48.112;8.616;2023-04-06T12:14:22;10.00;;;6.40;;
27744;SDS011;61387;48.112;8.616;2023-04-06T12:16:48;9.03;;;6.30;;
27744;SDS011;61387;48.112;8.616;2023-04-06T12:19:13;10.17;;;6.23;;
27744;SDS011;61387;48.112;8.616;2023-04-06T12:21:39;9.73;;;5.82;;
27744;SDS011;61387;48.112;8.616;2023-04-06T12:24:05;10.10;;;6.30;;
27744;SDS011;61387;48.112;8.616;2023-04-06T12:26:31;9.60;;;6.20;;
27744;SDS011;61387;48.112;8.616;2023-04-06T12:28:58;11.97;;;6.30;;
27744;SDS011;61387;48.112;8.616;2023-04-06T12:31:31;9.27;;;6.20;;
27744;SDS011;61387;48.112;8.616;2023-04-06T12:33:57;10.67;;;5.90;;
27744;SDS011;61387;48.112;8.616;2023-04-06T12:36:23;10.57;;;5.70;;
27744;SDS011;61387;48.112;8.616;2023-04-06T12:38:49;8.80;;;5.80;;
27744;SDS011;61387;48.112;8.616;2023-04-06T12:41:16;11.73;;;5.77;;
27744;SDS011;61387;48.112;8.616;2023-04-06T12:43:42;8.63;;;5.00;;
27744;SDS011;61387;48.112;8.616;2023-04-06T12:46:09;8.70;;;5.10;;
27744;SDS011;61387;48.112;8.616;2023-04-06T12:48:35;7.47;;;4.80;;
27744;SDS011;61387;48.112;8.616;2023-04-06T12:51:02;7.90;;;4.43;;
27744;SDS011;61387;48.112;8.616;2023-04-06T12:53:29;8.33;;;4.80;;
27744;SDS011;61387;48.112;8.616;2023-04-06T12:55:56;8.90;;;4.63;;
27744;SDS011;61387;48.112;8.616;2023-04-06T12:58:22;9.30;;;4.70;;
27744;SDS011;61387;48.112;8.616;2023-04-06T13:00:49;8.53;;;5.43;;
27744;SDS011;61387;48.112;8.616;2023-04-06T13:03:15;7.63;;;5.33;;
27744;SDS011;61387;48.112;8.616;2023-04-06T13:05:45;8.53;;;4.90;;
27744;SDS011;61387;48.112;8.616;2023-04-06T13:08:11;9.77;;;5.33;;
27744;SDS011;61387;48.112;8.616;2023-04-06T13:10:38;8.53;;;5.10;;
27744;SDS011;61387;48.112;8.616;2023-04-06T13:13:04;8.90;;;4.80;;
27744;SDS011;61387;48.112;8.616;2023-04-06T13:15:31;10.00;;;4.97;;
27744;SDS011;61387;48.112;8.616;2023-04-06T13:17:57;9.60;;;5.03;;
27744;SDS011;61387;48.112;8.616;2023-04-06T13:20:22;7.27;;;4.80;;
27744;SDS011;61387;48.112;8.616;2023-04-06T13:22:49;9.60;;;5.43;;
27744;SDS011;61387;48.112;8.616;2023-04-06T13:25:16;8.67;;;5.60;;
27744;SDS011;61387;48.112;8.616;2023-04-06T13:27:42;9.00;;;5.27;;
27744;SDS011;61387;48.112;8.616;2023-04-06T13:30:11;9.33;;;5.63;;
27744;SDS011;61387;48.112;8.616;2023-04-06T13:32:37;9.00;;;5.17;;
27744;SDS011;61387;48.112;8.616;2023-04-06T13:35:03;8.73;;;5.40;;
27744;SDS011;61387;48.112;8.616;2023-04-06T13:37:29;9.80;;;5.70;;
27744;SDS011;61387;48.112;8.616;2023-04-06T13:39:55;12.20;;;5.47;;
27744;SDS011;61387;48.112;8.616;2023-04-06T13:42:21;9.67;;;6.07;;
27744;SDS011;61387;48.112;8.616;2023-04-06T13:44:47;7.40;;;4.83;;
27744;SDS011;61387;48.112;8.616;2023-04-06T13:47:12;9.10;;;5.27;;
27744;SDS011;61387;48.112;8.616;2023-04-06T13:49:38;8.43;;;4.70;;
27744;SDS011;61387;48.112;8.616;2023-04-06T13:52:04;10.27;;;5.00;;
27744;SDS011;61387;48.112;8.616;2023-04-06T13:54:29;8.57;;;4.77;;
27744;SDS011;61387;48.112;8.616;2023-04-06T13:56:55;7.40;;;4.20;;
27744;SDS011;61387;48.112;8.616;2023-04-06T13:59:21;7.80;;;4.37;;
27744;SDS011;61387;48.112;8.616;2023-04-06T14:01:47;7.82;;;4.53;;
27744;SDS011;61387;48.112;8.616;2023-04-06T14:04:13;8.67;;;4.67;;
27744;SDS011;61387;48.112;8.616;2023-04-06T14:06:39;8.10;;;4.43;;
27744;SDS011;61387;48.112;8.616;2023-04-06T14:09:04;7.03;;;4.30;;
27744;SDS011;61387;48.112;8.616;2023-04-06T14:11:31;6.63;;;4.20;;
27744;SDS011;61387;48.112;8.616;2023-04-06T14:13:56;7.70;;;4.53;;
27744;SDS011;61387;48.112;8.616;2023-04-06T14:16:22;8.33;;;5.13;;
27744;SDS011;61387;48.112;8.616;2023-04-06T14:18:48;7.83;;;4.80;;
27744;SDS011;61387;48.112;8.616;2023-04-06T14:21:14;8.13;;;4.80;;
27744;SDS011;61387;48.112;8.616;2023-04-06T14:23:40;7.47;;;4.63;;
27744;SDS011;61387;48.112;8.616;2023-04-06T14:26:07;8.50;;;4.33;;
27744;SDS011;61387;48.112;8.616;2023-04-06T14:28:33;8.20;;;4.30;;
27744;SDS011;61387;48.112;8.616;2023-04-06T14:31:00;8.50;;;4.83;;
27744;SDS011;61387;48.112;8.616;2023-04-06T14:33:28;8.97;;;4.50;;
27744;SDS011;61387;48.112;8.616;2023-04-06T14:35:54;7.13;;;3.90;;
27744;SDS011;61387;48.112;8.616;2023-04-06T14:38:20;7.17;;;4.10;;
27744;SDS011;61387;48.112;8.616;2023-04-06T14:40:46;6.93;;;4.40;;